.
WxDataArchive / Data Records for 2011-04-25
2011-04-24 April 2011 2011-04-26

Data Records for Monday, 25 April 2011

Time	Temp	Chill	HIndex	Humid	Dewpt	 Wind 	HiWind	WindDir	Rain 	Barom 
-----	----	-----	------	-----	-----	------	------	-------	-----	----- 
00:00	55.7	55.7	55.7	89	52.5	0	0	---	0.00	30.007 
00:05	55.6	55.6	55.6	89	52.4	0	0	---	0.00	30.007 
00:10	55.4	55.4	55.4	89	52.2	0	0	---	0.00	30.007 
00:15	55.3	55.3	55.3	90	52.4	0	0	---	0.00	30.000 
00:20	55.3	55.3	55.3	90	52.4	0	0	---	0.00	30.000 
00:25	55.1	55.1	55.1	90	52.2	0	0	---	0.00	30.000 
00:30	55.1	55.1	55.1	91	52.5	0	0	---	0.00	29.994 
00:35	55.1	55.1	55.1	91	52.5	0	0	---	0.00	29.994 
00:40	55.0	55.0	55.0	91	52.4	0	0	---	0.00	29.994 
00:45	55.0	55.0	55.0	91	52.4	0	0	---	0.00	29.990 
00:50	55.0	55.0	55.0	91	52.4	0	0	---	0.00	29.990 
00:55	55.0	55.0	55.0	92	52.7	0	0	---	0.00	29.990 
01:00	55.0	55.0	55.0	92	52.7	0	0	---	0.00	29.980 
01:05	55.0	55.0	55.0	92	52.7	0	0	---	0.00	29.980 
01:10	55.0	55.0	55.0	92	52.7	0	0	---	0.00	29.980 
01:15	55.0	55.0	55.0	92	52.7	0	1	112	0.00	29.973 
01:20	55.0	55.0	55.0	92	52.7	0	2	112	0.00	29.973 
01:25	55.0	55.0	55.0	92	52.7	0	1	112	0.00	29.973 
01:30	54.8	54.8	54.8	93	52.8	0	1	112	0.00	29.970 
01:35	54.8	54.8	54.8	93	52.8	0	1	112	0.00	29.970 
01:40	54.7	54.7	54.7	93	52.7	0	2	112	0.00	29.970 
01:45	54.7	54.7	54.7	93	52.7	0	1	112	0.00	29.964 
01:50	54.7	54.7	54.7	93	52.7	0	2	112	0.00	29.964 
01:55	54.7	54.7	54.7	94	53.0	0	1	112	0.00	29.964 
02:00	54.7	54.7	54.7	94	53.0	0	1	112	0.00	29.962 
02:05	54.8	54.8	54.8	94	53.1	0	2	112	0.00	29.962 
02:10	54.7	54.7	54.7	94	53.0	0	1	112	0.00	29.962 
02:15	54.7	54.7	54.7	94	53.0	0	1	112	0.00	29.963 
02:20	54.7	54.7	54.7	94	53.0	0	0	---	0.00	29.963 
02:25	54.7	54.7	54.7	94	53.0	0	0	---	0.00	29.963 
02:30	54.7	54.7	54.7	94	53.0	0	1	112	0.00	29.958 
02:35	54.7	54.7	54.7	94	53.0	0	1	112	0.00	29.958 
02:40	54.5	54.5	54.5	94	52.8	0	0	---	0.00	29.958 
02:45	54.5	54.5	54.5	94	52.8	0	0	---	0.00	29.961 
02:50	54.5	54.5	54.5	94	52.8	0	0	---	0.00	29.961 
02:55	54.5	54.5	54.5	94	52.8	0	2	112	0.00	29.961 
03:00	54.5	54.5	54.5	94	52.8	0	2	112	0.00	29.955 
03:05	54.4	54.4	54.4	94	52.7	0	1	112	0.00	29.955 
03:10	54.4	54.4	54.4	95	53.0	0	2	112	0.00	29.955 
03:15	54.2	54.2	54.2	95	52.8	0	0	---	0.00	29.948 
03:20	54.2	54.2	54.2	95	52.8	0	2	112	0.00	29.948 
03:25	54.1	54.1	54.1	95	52.7	0	1	112	0.00	29.948 
03:30	54.1	54.1	54.1	95	52.7	0	1	112	0.00	29.955 
03:35	54.1	54.1	54.1	95	52.7	0	1	112	0.00	29.955 
03:40	54.1	54.1	54.1	95	52.7	0	2	112	0.00	29.955 
03:45	54.1	54.1	54.1	95	52.7	0	1	112	0.00	29.956 
03:50	54.1	54.1	54.1	95	52.7	0	2	112	0.00	29.956 
03:55	54.1	54.1	54.1	95	52.7	0	2	112	0.00	29.956 
04:00	54.1	54.1	54.1	95	52.7	0	1	112	0.00	29.953 
04:05	54.1	54.1	54.1	95	52.7	0	0	---	0.00	29.953 
04:10	54.1	54.1	54.1	95	52.7	0	1	112	0.00	29.953 
04:15	54.1	54.1	54.1	95	52.7	0	3	112	0.00	29.949 
04:20	54.1	54.1	54.1	95	52.7	0	3	112	0.00	29.949 
04:25	53.9	53.9	53.9	95	52.5	0	2	112	0.00	29.949 
04:30	53.9	53.9	53.9	95	52.5	0	1	112	0.00	29.957 
04:35	53.9	53.9	53.9	95	52.5	0	2	112	0.00	29.957 
04:40	53.9	53.9	53.9	95	52.5	0	0	---	0.00	29.957 
04:45	53.9	53.9	53.9	96	52.8	0	2	112	0.00	29.949 
04:50	54.1	54.1	54.1	96	53.0	0	3	112	0.00	29.949 
04:55	54.1	54.1	54.1	96	53.0	1	4	112	0.00	29.949 
05:00	54.1	54.1	54.1	96	53.0	1	2	112	0.00	29.946 
05:05	54.1	54.1	54.1	96	53.0	1	3	90	0.00	29.946 
05:10	54.1	54.1	54.1	96	53.0	1	3	90	0.00	29.946 
05:15	53.9	53.9	53.9	96	52.8	0	3	90	0.00	29.943 
05:20	53.9	53.9	53.9	96	52.8	1	3	90	0.00	29.943 
05:25	53.9	53.9	53.9	96	52.8	1	3	90	0.00	29.943 
05:30	53.9	53.9	53.9	96	52.8	1	3	90	0.00	29.945 
05:35	53.9	53.9	53.9	96	52.8	1	3	90	0.00	29.945 
05:40	53.8	53.8	53.8	96	52.7	1	4	90	0.00	29.945 
05:45	53.8	53.8	53.8	96	52.7	0	2	90	0.00	29.943 
05:50	53.8	53.8	53.8	96	52.7	1	4	90	0.00	29.943 
05:55	53.6	53.6	53.6	96	52.5	0	2	90	0.00	29.943 
06:00	53.6	53.6	53.6	96	52.5	0	2	90	0.00	29.938 
06:05	53.6	53.6	53.6	96	52.5	2	4	90	0.00	29.938 
06:10	53.6	53.6	53.6	96	52.5	1	4	90	0.00	29.938 
06:15	53.5	53.5	53.5	96	52.4	1	3	112	0.00	29.932 
06:20	53.5	53.5	53.5	96	52.4	1	3	112	0.00	29.932 
06:25	53.3	53.3	53.3	96	52.2	2	4	90	0.00	29.932 
06:30	53.3	53.3	53.3	96	52.2	1	3	112	0.00	29.930 
06:35	53.3	53.3	53.3	96	52.2	1	3	112	0.00	29.930 
06:40	53.2	53.2	53.2	96	52.1	1	6	112	0.00	29.930 
06:45	53.1	53.1	53.1	96	52.0	3	5	90	0.00	29.931 
06:50	53.1	53.1	53.1	96	52.0	2	5	112	0.00	29.931 
06:55	52.9	52.9	52.9	96	51.8	1	4	90	0.00	29.931 
07:00	52.9	52.9	52.9	96	51.8	2	5	90	0.00	29.933 
07:05	52.8	52.8	52.8	96	51.7	2	5	112	0.01	29.933 
07:10	52.8	52.8	52.8	96	51.7	2	6	112	0.00	29.933 
07:15	52.8	52.8	52.8	96	51.7	1	5	112	0.00	29.933 
07:20	52.8	52.8	52.8	96	51.7	1	4	112	0.01	29.933 
07:25	52.8	52.8	52.8	96	51.7	1	4	112	0.02	29.933 
07:30	52.8	52.8	52.8	96	51.7	2	5	112	0.01	29.930 
07:35	52.6	52.6	52.6	96	51.5	1	5	112	0.00	29.930 
07:40	52.6	52.6	52.6	96	51.5	1	5	112	0.01	29.930 
07:45	52.6	52.6	52.6	96	51.5	1	5	112	0.01	29.930 
07:50	52.6	52.6	52.6	96	51.5	1	4	112	0.00	29.930 
07:55	52.6	52.6	52.6	96	51.5	2	7	90	0.01	29.930 
08:00	52.6	52.6	52.6	96	51.5	1	4	112	0.01	29.930 
08:05	52.6	52.6	52.6	96	51.5	1	5	112	0.00	29.930 
08:10	52.6	52.6	52.6	96	51.5	1	3	112	0.01	29.930 
08:15	52.6	52.6	52.6	96	51.5	2	5	90	0.02	29.935 
08:20	52.6	52.6	52.6	96	51.5	2	6	90	0.01	29.935 
08:25	52.6	52.6	52.6	96	51.5	2	4	90	0.02	29.935 
08:30	52.6	52.6	52.6	96	51.5	2	5	68	0.01	29.929 
08:35	52.6	52.6	52.6	96	51.5	2	5	90	0.01	29.929 
08:40	52.6	52.6	52.6	96	51.5	3	7	112	0.00	29.929 
08:45	52.8	52.8	52.8	96	51.7	1	4	112	0.00	29.919 
08:50	52.8	52.8	52.8	96	51.7	1	5	112	0.01	29.919 
08:55	52.8	52.8	52.8	97	52.0	1	4	112	0.00	29.919 
09:00	52.6	52.6	52.6	96	51.5	1	9	112	0.00	29.920 
09:05	52.6	52.6	52.6	96	51.5	2	6	90	0.01	29.920 
09:10	52.6	52.6	52.6	97	51.8	1	3	90	0.01	29.920 
09:15	52.6	52.6	52.6	97	51.8	0	4	112	0.00	29.915 
09:20	52.6	52.6	52.6	97	51.8	1	4	112	0.01	29.915 
09:25	52.6	52.6	52.6	97	51.8	2	6	112	0.00	29.915 
09:30	52.8	52.8	52.8	97	52.0	1	5	90	0.00	29.911 
09:35	52.8	52.8	52.8	97	52.0	2	4	90	0.00	29.911 
09:40	52.8	52.8	52.8	97	52.0	1	5	90	0.01	29.911 
09:45	52.6	52.6	52.6	97	51.8	1	5	112	0.00	29.910 
09:50	52.5	52.5	52.5	97	51.7	3	7	112	0.00	29.910 
09:55	52.3	52.3	52.3	97	51.5	2	5	112	0.01	29.910 
10:00	52.3	52.3	52.3	97	51.5	2	10	112	0.01	29.904 
10:05	52.5	52.5	52.5	97	51.7	2	6	112	0.01	29.904 
10:10	52.5	52.5	52.5	97	51.7	1	4	112	0.01	29.904 
10:15	52.5	52.5	52.5	97	51.7	3	7	90	0.00	29.901 
10:20	52.5	52.5	52.5	97	51.7	3	10	90	0.01	29.901 
10:25	52.5	52.5	52.5	97	51.7	4	10	112	0.01	29.901 
10:30	52.5	52.5	52.5	97	51.7	2	6	90	0.00	29.883 
10:35	52.5	52.5	52.5	97	51.7	5	11	90	0.00	29.883 
10:40	52.5	52.5	52.5	97	51.7	5	12	112	0.00	29.883 
10:45	52.6	52.6	52.6	97	51.8	3	6	90	0.01	29.880 
10:50	52.8	52.8	52.8	97	52.0	2	11	90	0.00	29.880 
10:55	52.6	52.6	52.6	97	51.8	2	7	90	0.00	29.880 
11:00	52.5	52.5	52.5	97	51.7	4	10	90	0.00	29.883 
11:05	52.5	52.5	52.5	97	51.7	4	10	90	0.01	29.883 
11:10	52.5	52.5	52.5	97	51.7	2	6	112	0.00	29.883 
11:15	52.6	52.6	52.6	97	51.8	2	6	112	0.01	29.886 
11:20	52.6	52.6	52.6	97	51.8	2	6	112	0.01	29.886 
11:25	52.6	52.6	52.6	97	51.8	1	4	112	0.00	29.886 
11:30	52.6	52.6	52.6	97	51.8	1	7	112	0.01	29.871 
11:35	52.6	52.6	52.6	97	51.8	2	10	90	0.00	29.871 
11:40	52.5	52.5	52.5	97	51.7	2	6	112	0.00	29.871 
11:45	52.5	52.5	52.5	97	51.7	3	9	112	0.00	29.870 
11:50	52.5	52.5	52.5	97	51.7	2	6	112	0.00	29.870 
11:55	52.5	52.5	52.5	96	51.4	3	10	90	0.01	29.870 
12:00	52.5	52.5	52.5	97	51.7	3	9	112	0.00	29.869 
12:05	52.5	52.5	52.5	97	51.7	4	11	90	0.01	29.869 
12:10	52.3	52.3	52.3	96	51.2	3	11	112	0.00	29.869 
12:15	52.5	52.5	52.5	96	51.4	3	6	112	0.01	29.868 
12:20	52.5	52.5	52.5	96	51.4	3	10	112	0.01	29.868 
12:25	52.5	52.5	52.5	96	51.4	2	8	112	0.01	29.868 
12:30	52.5	52.5	52.5	96	51.4	2	6	112	0.01	29.864 
12:35	52.5	52.5	52.5	96	51.4	2	7	112	0.01	29.864 
12:40	52.5	52.5	52.5	96	51.4	2	6	112	0.00	29.864 
12:45	52.6	52.6	52.6	96	51.5	2	6	112	0.01	29.862 
12:50	52.6	52.6	52.6	96	51.5	2	7	112	0.01	29.862 
12:55	52.6	52.6	52.6	96	51.5	2	7	68	0.01	29.862 
13:00	52.6	52.6	52.6	96	51.5	2	7	112	0.01	29.855 
13:05	52.6	52.6	52.6	96	51.5	3	7	90	0.01	29.855 
13:10	52.6	52.6	52.6	96	51.5	2	6	90	0.01	29.855 
13:15	52.8	52.8	52.8	96	51.7	2	7	90	0.01	29.842 
13:20	52.8	52.8	52.8	96	51.7	1	4	22	0.01	29.842 
13:25	52.6	52.6	52.6	96	51.5	2	5	112	0.00	29.842 
13:30	52.5	52.5	52.5	96	51.4	2	7	112	0.01	29.842 
13:35	52.3	52.3	52.3	96	51.2	2	6	112	0.01	29.842 
13:40	52.3	52.3	52.3	96	51.2	3	9	22	0.00	29.842 
13:45	52.3	52.3	52.3	96	51.2	2	7	22	0.02	29.832 
13:50	52.5	52.5	52.5	96	51.4	3	6	112	0.00	29.832 
13:55	52.5	52.5	52.5	96	51.4	1	4	112	0.01	29.832 
14:00	52.6	52.6	52.6	96	51.5	2	6	112	0.00	29.834 
14:05	52.6	52.6	52.6	96	51.5	3	10	112	0.01	29.834 
14:10	52.6	52.6	52.6	96	51.5	2	5	135	0.02	29.834 
14:15	52.5	52.5	52.5	96	51.4	1	5	112	0.00	29.839 
14:20	52.5	52.5	52.5	96	51.4	2	11	112	0.01	29.839 
14:25	52.6	52.6	52.6	96	51.5	2	6	112	0.01	29.839 
14:30	52.5	52.5	52.5	96	51.4	2	6	90	0.02	29.838 
14:35	52.6	52.6	52.6	96	51.5	1	5	90	0.00	29.838 
14:40	52.5	52.5	52.5	96	51.4	2	9	112	0.01	29.838 
14:45	52.5	52.5	52.5	96	51.4	2	6	112	0.00	29.838 
14:50	52.5	52.5	52.5	96	51.4	2	5	112	0.01	29.838 
14:55	52.5	52.5	52.5	96	51.4	2	6	112	0.00	29.838 
15:00	52.6	52.6	52.6	96	51.5	1	3	45	0.00	29.833 
15:05	52.9	52.9	52.9	96	51.8	2	10	112	0.00	29.833 
15:10	52.9	52.9	52.9	96	51.8	2	6	112	0.00	29.833 
15:15	52.9	52.9	52.9	96	51.8	1	4	112	0.00	29.821 
15:20	52.8	52.8	52.8	96	51.7	3	8	112	0.00	29.821 
15:25	52.9	52.9	52.9	96	51.8	3	7	112	0.00	29.821 
15:30	52.9	52.9	52.9	96	51.8	1	5	112	0.00	29.810 
15:35	52.9	52.9	52.9	96	51.8	2	8	112	0.00	29.810 
15:40	52.8	52.8	52.8	96	51.7	2	6	112	0.00	29.810 
15:45	52.8	52.8	52.8	96	51.7	3	11	112	0.00	29.803 
15:50	52.9	52.9	52.9	95	51.5	2	11	112	0.00	29.803 
15:55	52.9	52.9	52.9	95	51.5	4	12	112	0.00	29.803 
16:00	52.8	52.8	52.8	95	51.4	5	12	112	0.00	29.795 
16:05	52.8	52.8	52.8	95	51.4	4	12	112	0.00	29.795 
16:10	53.1	53.1	53.1	95	51.7	2	8	112	0.00	29.795 
16:15	53.2	53.2	53.2	95	51.8	2	7	112	0.00	29.795 
16:20	53.1	53.1	53.1	94	51.4	4	11	112	0.00	29.795 
16:25	53.1	53.1	53.1	94	51.4	3	9	112	0.00	29.795 
16:30	53.2	53.2	53.2	94	51.5	2	6	112	0.00	29.805 
16:35	53.1	53.1	53.1	94	51.4	2	6	112	0.00	29.805 
16:40	52.9	52.9	52.9	94	51.2	3	10	112	0.00	29.805 
16:45	53.1	53.1	53.1	94	51.4	2	7	90	0.00	29.806 
16:50	53.1	53.1	53.1	94	51.4	1	3	90	0.00	29.806 
16:55	53.1	53.1	53.1	93	51.1	2	8	45	0.00	29.806 
17:00	52.9	52.9	52.9	93	50.9	2	5	90	0.00	29.800 
17:05	53.1	53.1	53.1	93	51.1	1	3	90	0.00	29.800 
17:10	53.1	53.1	53.1	93	51.1	1	5	90	0.00	29.800 
17:15	53.1	53.1	53.1	93	51.1	1	5	112	0.00	29.807 
17:20	52.9	52.9	52.9	93	50.9	2	6	112	0.00	29.807 
17:25	52.9	52.9	52.9	93	50.9	2	7	112	0.00	29.807 
17:30	52.9	52.9	52.9	93	50.9	1	5	112	0.00	29.810 
17:35	53.1	53.1	53.1	92	50.8	1	6	90	0.00	29.810 
17:40	53.2	53.2	53.2	93	51.2	1	4	90	0.00	29.810 
17:45	53.1	53.1	53.1	92	50.8	2	6	112	0.00	29.812 
17:50	53.1	53.1	53.1	92	50.8	2	6	68	0.00	29.812 
17:55	53.1	53.1	53.1	92	50.8	1	5	45	0.00	29.812 
18:00	53.1	53.1	53.1	92	50.8	1	5	112	0.00	29.826 
18:05	53.1	53.1	53.1	92	50.8	1	6	112	0.00	29.826 
18:10	52.9	52.9	52.9	92	50.6	3	7	112	0.00	29.826 
18:15	53.1	53.1	53.1	92	50.8	1	5	68	0.00	29.827 
18:20	53.1	53.1	53.1	92	50.8	1	4	135	0.00	29.827 
18:25	52.9	52.9	52.9	92	50.6	3	11	90	0.00	29.827 
18:30	52.9	52.9	52.9	92	50.6	2	6	90	0.00	29.831 
18:35	52.9	52.9	52.9	92	50.6	0	3	90	0.00	29.831 
18:40	52.9	52.9	52.9	92	50.6	1	6	112	0.00	29.831 
18:45	52.8	52.8	52.8	92	50.5	1	4	112	0.00	29.834 
18:50	52.6	52.6	52.6	92	50.3	2	7	112	0.00	29.834 
18:55	52.5	52.5	52.5	92	50.2	2	6	90	0.00	29.834 
19:00	52.3	52.3	52.3	92	50.0	2	6	112	0.00	29.831 
19:05	52.2	52.2	52.2	92	49.9	2	6	90	0.00	29.831 
19:10	52.2	52.2	52.2	93	50.2	2	10	135	0.00	29.831 
19:15	52.0	52.0	52.0	93	50.0	3	6	90	0.00	29.835 
19:20	51.9	51.9	51.9	93	49.9	2	7	112	0.00	29.835 
19:25	51.9	51.9	51.9	93	49.9	3	9	90	0.00	29.835 
19:30	51.7	51.7	51.7	93	49.7	3	7	90	0.00	29.844 
19:35	51.7	51.7	51.7	93	49.7	2	7	112	0.00	29.844 
19:40	51.6	51.6	51.6	93	49.6	2	6	112	0.00	29.844 
19:45	51.6	51.6	51.6	93	49.6	2	10	112	0.00	29.844 
19:50	51.6	51.6	51.6	93	49.6	1	5	112	0.00	29.844 
19:55	51.4	51.4	51.4	93	49.4	2	6	112	0.00	29.844 
20:00	51.3	51.3	51.3	93	49.3	2	7	112	0.00	29.837 
20:05	51.3	51.3	51.3	93	49.3	2	5	112	0.00	29.837 
20:10	51.1	51.1	51.1	93	49.1	1	4	112	0.00	29.837 
20:15	51.1	51.1	51.1	93	49.1	2	5	135	0.00	29.831 
20:20	51.0	51.0	51.0	93	49.0	3	7	112	0.00	29.831 
20:25	51.0	51.0	51.0	93	49.0	3	5	112	0.00	29.831 
20:30	51.0	51.0	51.0	93	49.0	2	4	112	0.00	29.828 
20:35	50.8	50.8	50.8	93	48.8	3	6	90	0.00	29.828 
20:40	50.8	50.8	50.8	93	48.8	4	11	112	0.00	29.828 
20:45	50.7	50.7	50.7	93	48.7	3	9	112	0.00	29.829 
20:50	50.7	50.7	50.7	93	48.7	3	9	90	0.00	29.829 
20:55	50.5	50.5	50.5	93	48.6	3	9	90	0.00	29.829 
21:00	50.5	50.5	50.5	93	48.6	2	6	90	0.00	29.828 
21:05	50.5	50.5	50.5	94	48.8	2	9	90	0.00	29.828 
21:10	50.4	50.4	50.4	94	48.7	2	7	90	0.01	29.828 
21:15	50.4	50.4	50.4	94	48.7	2	11	112	0.00	29.829 
21:20	50.2	50.2	50.2	94	48.5	4	10	90	0.00	29.829 
21:25	50.1	50.1	50.1	94	48.4	4	10	90	0.00	29.829 
21:30	50.1	50.1	50.1	94	48.4	1	7	68	0.00	29.815 
21:35	49.9	49.9	49.9	94	48.2	3	7	90	0.00	29.815 
21:40	49.8	49.8	49.8	95	48.4	3	7	112	0.00	29.815 
21:45	49.8	49.8	49.8	95	48.4	3	10	112	0.00	29.811 
21:50	49.6	49.6	49.6	95	48.2	3	13	112	0.00	29.811 
21:55	49.6	49.6	49.6	95	48.2	2	9	112	0.00	29.811 
22:00	49.5	49.5	49.5	95	48.1	2	6	112	0.00	29.804 
22:05	49.4	49.4	49.4	95	48.0	3	7	90	0.00	29.804 
22:10	49.2	49.2	49.2	95	47.8	2	7	90	0.00	29.804 
22:15	49.2	49.2	49.2	95	47.8	3	7	90	0.00	29.812 
22:20	49.1	49.1	49.1	95	47.7	2	6	90	0.00	29.812 
22:25	49.1	47.8	49.1	95	47.7	4	13	112	0.00	29.812 
22:30	48.9	47.6	48.9	96	47.8	4	10	90	0.00	29.799 
22:35	48.9	48.9	48.9	96	47.8	3	9	90	0.00	29.799 
22:40	48.9	48.9	48.9	96	47.8	2	6	112	0.00	29.799 
22:45	48.9	48.9	48.9	96	47.8	3	8	112	0.00	29.807 
22:50	48.9	48.9	48.9	96	47.8	3	6	90	0.00	29.807 
22:55	48.8	48.8	48.8	96	47.7	2	6	90	0.00	29.807 
23:00	48.8	48.8	48.8	96	47.7	2	7	90	0.00	29.807 
23:05	48.9	48.9	48.9	96	47.8	2	7	90	0.00	29.807 
23:10	48.9	48.9	48.9	96	47.8	1	4	90	0.00	29.807 
23:15	48.9	48.9	48.9	96	47.8	1	3	90	0.00	29.805 
23:20	48.8	48.8	48.8	96	47.7	3	6	90	0.00	29.805 
23:25	48.8	48.8	48.8	96	47.7	3	5	90	0.00	29.805 
23:30	48.6	48.6	48.6	96	47.5	3	7	90	0.00	29.797 
23:35	48.6	48.6	48.6	96	47.5	3	9	90	0.01	29.797 
23:40	48.5	48.5	48.5	96	47.4	3	7	112	0.00	29.797 
23:45	48.3	48.3	48.3	96	47.2	3	8	112	0.00	29.784 
23:50	48.2	48.2	48.2	96	47.1	3	7	90	0.00	29.784 
23:55	48.2	46.8	48.2	96	47.1	4	11	90	0.00	29.784 

CoCoRaHS
IN-AL-39
A2 Web Hosting
Creative Commons License
GoDaddy
search engine by freefind advanced

loaded 2018-11-17 18:11:08 • last modified 2010-11-18 10:43:29
Privacy PolicyDisclaimer
• wx.awcolley.com is powered by PmWiki v.2002016 •
• all content (unless otherwise noted) © 2018 A W Colley